createdAt,value
2017-12-31T00:00:34.568Z,995.44
2017-12-31T00:01:34.554Z,995.44
2017-12-31T00:02:34.537Z,995.45
2017-12-31T00:03:34.520Z,995.46
2017-12-31T00:04:34.504Z,995.47
2017-12-31T00:05:34.488Z,995.45
2017-12-31T00:06:34.474Z,995.48
2017-12-31T00:07:34.461Z,995.48
2017-12-31T00:08:34.439Z,995.53
2017-12-31T00:09:34.425Z,995.54
2017-12-31T00:10:34.408Z,995.5
2017-12-31T00:11:34.397Z,995.51
2017-12-31T00:12:34.378Z,995.53
2017-12-31T00:13:34.360Z,995.52
2017-12-31T00:14:34.349Z,995.55
2017-12-31T00:15:34.331Z,995.61
2017-12-31T00:16:34.315Z,995.61
2017-12-31T00:17:34.297Z,995.65
2017-12-31T00:18:34.283Z,995.64
2017-12-31T00:19:34.466Z,995.72
2017-12-31T00:20:34.249Z,995.73
2017-12-31T00:21:34.235Z,995.73
2017-12-31T00:22:34.216Z,995.72
2017-12-31T00:23:34.201Z,995.69
2017-12-31T00:24:34.185Z,995.69
2017-12-31T00:25:34.170Z,995.7
2017-12-31T00:26:34.153Z,995.66
2017-12-31T00:27:34.137Z,995.57
2017-12-31T00:28:34.121Z,995.6
2017-12-31T00:29:34.105Z,995.62
2017-12-31T00:30:34.087Z,995.6
2017-12-31T00:31:34.078Z,995.61
2017-12-31T00:32:34.058Z,995.61
2017-12-31T00:33:34.046Z,995.64
2017-12-31T00:34:34.024Z,995.63
2017-12-31T00:35:34.009Z,995.64
2017-12-31T00:36:33.994Z,995.67
2017-12-31T00:37:33.976Z,995.67
2017-12-31T00:38:33.960Z,995.69
2017-12-31T00:39:33.944Z,995.64
2017-12-31T00:40:33.929Z,995.61
2017-12-31T00:41:33.913Z,995.61
2017-12-31T00:42:33.895Z,995.65
2017-12-31T00:43:33.885Z,995.65
2017-12-31T00:44:33.868Z,995.68
2017-12-31T00:45:33.847Z,995.63
2017-12-31T00:46:33.829Z,995.67
2017-12-31T00:47:33.817Z,995.58
2017-12-31T00:48:33.798Z,995.64
2017-12-31T00:49:33.788Z,995.65
2017-12-31T00:50:33.771Z,995.67
2017-12-31T00:51:33.753Z,995.71
2017-12-31T00:52:33.734Z,995.61
2017-12-31T00:53:33.721Z,995.69
2017-12-31T00:54:33.703Z,995.66
2017-12-31T00:55:33.684Z,995.65
2017-12-31T00:56:33.672Z,995.7
2017-12-31T00:57:33.654Z,995.63
2017-12-31T00:58:33.640Z,995.69
2017-12-31T00:59:33.624Z,995.61
2017-12-31T01:00:33.606Z,995.57
2017-12-31T01:01:33.592Z,995.62
2017-12-31T01:02:33.579Z,995.59
2017-12-31T01:03:33.557Z,995.68
2017-12-31T01:04:33.540Z,995.63
2017-12-31T01:05:33.524Z,995.71
2017-12-31T01:06:33.508Z,995.72
2017-12-31T01:07:33.493Z,995.69
2017-12-31T01:08:33.474Z,995.73
2017-12-31T01:09:33.456Z,995.71
2017-12-31T01:10:33.439Z,995.82
2017-12-31T01:11:33.423Z,995.75
2017-12-31T01:12:33.407Z,995.73
2017-12-31T01:13:33.393Z,995.76
2017-12-31T01:14:33.372Z,995.74
2017-12-31T01:15:33.355Z,995.81
2017-12-31T01:16:33.338Z,995.74
2017-12-31T01:17:33.321Z,995.76
2017-12-31T01:18:33.305Z,995.75
2017-12-31T01:19:33.286Z,995.77
2017-12-31T01:20:33.270Z,995.78
2017-12-31T01:21:33.254Z,995.8
2017-12-31T01:22:33.238Z,995.84
2017-12-31T01:23:33.220Z,995.78
2017-12-31T01:24:33.206Z,995.77
2017-12-31T01:25:33.186Z,995.72
2017-12-31T01:26:33.169Z,995.7
2017-12-31T01:27:33.153Z,995.7
2017-12-31T01:28:33.187Z,995.74
2017-12-31T01:29:33.117Z,995.68
2017-12-31T01:30:33.099Z,995.72
2017-12-31T01:31:33.084Z,995.58
2017-12-31T01:32:33.066Z,995.63
2017-12-31T01:33:33.050Z,995.62
2017-12-31T01:34:33.032Z,995.63
2017-12-31T01:35:33.015Z,995.6
2017-12-31T01:36:33.004Z,995.65
2017-12-31T01:37:32.983Z,995.65
2017-12-31T01:38:32.966Z,995.67
2017-12-31T01:39:32.947Z,995.64
2017-12-31T01:40:32.928Z,995.58
2017-12-31T01:41:32.911Z,995.6
2017-12-31T01:42:32.896Z,995.57
2017-12-31T01:43:32.879Z,995.58
2017-12-31T01:44:32.861Z,995.63
2017-12-31T01:45:32.844Z,995.6
2017-12-31T01:46:32.826Z,995.59
2017-12-31T01:47:32.811Z,995.6
2017-12-31T01:48:32.793Z,995.61
2017-12-31T01:49:32.775Z,995.62
2017-12-31T01:50:32.758Z,995.58
2017-12-31T01:51:32.742Z,995.57
2017-12-31T01:52:32.726Z,995.62
2017-12-31T01:53:32.708Z,995.57
2017-12-31T01:54:32.688Z,995.59
2017-12-31T01:55:32.672Z,995.64
2017-12-31T01:56:32.663Z,995.58
2017-12-31T01:57:32.641Z,995.58
2017-12-31T01:58:32.619Z,995.62
2017-12-31T01:59:32.607Z,995.66
2017-12-31T02:00:32.587Z,995.63
2017-12-31T02:01:32.568Z,995.66
2017-12-31T02:02:32.549Z,995.64
2017-12-31T02:03:32.533Z,995.6
2017-12-31T02:04:32.517Z,995.63
2017-12-31T02:05:32.501Z,995.65
2017-12-31T02:06:32.482Z,995.65
2017-12-31T02:07:32.473Z,995.64
2017-12-31T02:08:32.448Z,995.66
2017-12-31T02:09:32.430Z,995.72
2017-12-31T02:10:32.418Z,995.69
2017-12-31T02:11:32.396Z,995.63
2017-12-31T02:12:32.380Z,995.64
2017-12-31T02:13:32.362Z,995.62
2017-12-31T02:14:32.345Z,995.59
2017-12-31T02:15:32.329Z,995.6
2017-12-31T02:16:32.310Z,995.62
2017-12-31T02:17:32.297Z,995.61
2017-12-31T02:18:32.275Z,995.57
2017-12-31T02:19:32.462Z,995.5
2017-12-31T02:20:32.241Z,995.45
2017-12-31T02:21:32.225Z,995.5
2017-12-31T02:22:32.207Z,995.46
2017-12-31T02:23:32.191Z,995.51
2017-12-31T02:24:32.172Z,995.5
2017-12-31T02:25:32.158Z,995.53
2017-12-31T02:26:32.139Z,995.48
2017-12-31T02:27:32.127Z,995.47
2017-12-31T02:28:32.106Z,995.49
2017-12-31T02:29:32.090Z,995.5
2017-12-31T02:30:32.071Z,995.49
2017-12-31T02:31:32.056Z,995.43
2017-12-31T02:32:32.037Z,995.46
2017-12-31T02:33:32.021Z,995.46
2017-12-31T02:34:32.057Z,995.44
2017-12-31T02:35:31.987Z,995.4
2017-12-31T02:36:31.968Z,995.46
2017-12-31T02:37:31.952Z,995.52
2017-12-31T02:38:31.943Z,995.46
2017-12-31T02:39:31.918Z,995.41
2017-12-31T02:40:31.900Z,995.44
2017-12-31T02:41:31.883Z,995.41
2017-12-31T02:42:31.868Z,995.42
2017-12-31T02:43:31.853Z,995.4
2017-12-31T02:44:31.835Z,995.39
2017-12-31T02:45:31.820Z,995.4
2017-12-31T02:46:31.802Z,995.43
2017-12-31T02:47:31.781Z,995.36
2017-12-31T02:48:31.764Z,995.37
2017-12-31T02:49:31.748Z,995.35
2017-12-31T02:50:31.732Z,995.29
2017-12-31T02:51:31.713Z,995.29
2017-12-31T02:52:31.697Z,995.28
2017-12-31T02:53:31.678Z,995.21
2017-12-31T02:54:31.662Z,995.2
2017-12-31T02:55:31.643Z,995.11
2017-12-31T02:56:31.629Z,995.12
2017-12-31T02:57:31.607Z,995.12
2017-12-31T02:58:31.594Z,995.06
2017-12-31T02:59:31.574Z,995
2017-12-31T03:00:31.558Z,994.98
2017-12-31T03:01:31.540Z,994.95
2017-12-31T03:02:31.522Z,994.95
2017-12-31T03:03:31.505Z,994.89
2017-12-31T03:04:31.487Z,994.89
2017-12-31T03:05:31.471Z,994.88
2017-12-31T03:06:31.456Z,994.84
2017-12-31T03:07:31.435Z,994.86
2017-12-31T03:08:31.418Z,994.86
2017-12-31T03:09:31.402Z,994.82
2017-12-31T03:10:31.385Z,994.82
2017-12-31T03:11:31.369Z,994.79
2017-12-31T03:12:31.350Z,994.82
2017-12-31T03:13:31.333Z,994.82
2017-12-31T03:14:31.365Z,994.82
2017-12-31T03:15:31.298Z,994.73
2017-12-31T03:16:31.283Z,994.69
2017-12-31T03:17:31.263Z,994.67
2017-12-31T03:18:31.247Z,994.6
2017-12-31T03:19:31.230Z,994.67
2017-12-31T03:20:31.212Z,994.72
2017-12-31T03:21:31.195Z,994.67
2017-12-31T03:22:31.178Z,994.73
2017-12-31T03:23:31.160Z,994.72
2017-12-31T03:24:31.141Z,994.72
2017-12-31T03:25:31.125Z,994.73
2017-12-31T03:26:31.114Z,994.76
2017-12-31T03:27:31.091Z,994.76
2017-12-31T03:28:31.073Z,994.72
2017-12-31T03:29:31.055Z,994.72
2017-12-31T03:30:31.039Z,994.72
2017-12-31T03:31:31.022Z,994.65
2017-12-31T03:32:31.006Z,994.64
2017-12-31T03:33:30.986Z,994.66
2017-12-31T03:34:30.967Z,994.57
2017-12-31T03:35:30.956Z,994.61
2017-12-31T03:36:30.934Z,994.52
2017-12-31T03:37:30.915Z,994.57
2017-12-31T03:38:30.898Z,994.55
2017-12-31T03:39:30.880Z,994.52
2017-12-31T03:40:30.863Z,994.49
2017-12-31T03:41:30.844Z,994.48
2017-12-31T03:42:30.828Z,994.39
2017-12-31T03:43:30.811Z,994.43
2017-12-31T03:44:30.791Z,994.38
2017-12-31T03:45:30.777Z,994.39
2017-12-31T03:46:30.758Z,994.38
2017-12-31T03:47:30.739Z,994.33
2017-12-31T03:48:30.722Z,994.33
2017-12-31T03:49:30.707Z,994.26
2017-12-31T03:50:30.686Z,994.25
2017-12-31T03:51:30.669Z,994.24
2017-12-31T03:52:30.651Z,994.3
2017-12-31T03:53:30.633Z,994.29
2017-12-31T03:54:30.617Z,994.27
2017-12-31T03:55:30.598Z,994.22
2017-12-31T03:56:30.582Z,994.23
2017-12-31T03:57:30.563Z,994.24
2017-12-31T03:58:30.545Z,994.19
2017-12-31T03:59:30.531Z,994.2
2017-12-31T04:00:30.510Z,994.24
2017-12-31T04:01:30.493Z,994.24
2017-12-31T04:02:30.474Z,994.2
2017-12-31T04:03:30.457Z,994.24
2017-12-31T04:04:30.439Z,994.23
2017-12-31T04:05:30.420Z,994.22
2017-12-31T04:06:30.409Z,994.23
2017-12-31T04:07:30.386Z,994.24
2017-12-31T04:08:30.368Z,994.18
2017-12-31T04:09:30.376Z,994.15
2017-12-31T04:10:30.338Z,994.14
2017-12-31T04:11:30.319Z,994.12
2017-12-31T04:12:30.300Z,994.1
2017-12-31T04:13:30.281Z,994.12
2017-12-31T04:14:30.264Z,994.08
2017-12-31T04:15:30.248Z,994.09
2017-12-31T04:16:30.230Z,994.02
2017-12-31T04:17:30.214Z,994.05
2017-12-31T04:18:30.194Z,994.05
2017-12-31T04:19:30.178Z,994.03
2017-12-31T04:20:30.159Z,994.01
2017-12-31T04:21:30.142Z,994
2017-12-31T04:22:30.128Z,993.99
2017-12-31T04:23:30.105Z,993.93
2017-12-31T04:24:30.087Z,993.97
2017-12-31T04:25:30.072Z,993.9
2017-12-31T04:26:30.052Z,993.9
2017-12-31T04:27:30.034Z,993.89
2017-12-31T04:28:30.016Z,993.88
2017-12-31T04:29:29.999Z,993.81
2017-12-31T04:30:29.982Z,993.86
2017-12-31T04:31:29.961Z,993.77
2017-12-31T04:32:29.946Z,993.83
2017-12-31T04:33:29.926Z,993.83
2017-12-31T04:34:29.910Z,993.84
2017-12-31T04:35:29.896Z,993.79
2017-12-31T04:36:29.874Z,993.74
2017-12-31T04:37:29.855Z,993.72
2017-12-31T04:38:29.841Z,993.76
2017-12-31T04:39:29.821Z,993.79
2017-12-31T04:40:29.802Z,993.78
2017-12-31T04:41:29.785Z,993.82
2017-12-31T04:42:29.765Z,993.81
2017-12-31T04:43:29.750Z,993.74
2017-12-31T04:44:29.730Z,993.8
2017-12-31T04:45:29.712Z,993.79
2017-12-31T04:46:29.693Z,993.76
2017-12-31T04:47:29.675Z,993.79
2017-12-31T04:48:29.658Z,993.73
2017-12-31T04:49:29.656Z,993.7
2017-12-31T04:50:29.621Z,993.66
2017-12-31T04:51:29.604Z,993.63
2017-12-31T04:52:29.585Z,993.65
2017-12-31T04:53:29.573Z,993.65
2017-12-31T04:54:29.549Z,993.72
2017-12-31T04:55:29.537Z,993.64
2017-12-31T04:56:29.565Z,993.62
2017-12-31T04:57:29.497Z,993.6
2017-12-31T04:58:29.479Z,993.61
2017-12-31T04:59:29.465Z,993.56
2017-12-31T05:00:29.444Z,993.59
2017-12-31T05:01:29.425Z,993.63
2017-12-31T05:02:29.409Z,993.6
2017-12-31T05:03:29.390Z,993.58
2017-12-31T05:04:29.373Z,993.61
2017-12-31T05:05:29.353Z,993.62
2017-12-31T05:06:29.336Z,993.64
2017-12-31T05:07:29.318Z,993.82
2017-12-31T05:08:29.301Z,993.69
2017-12-31T05:09:29.283Z,993.67
2017-12-31T05:10:29.265Z,993.68
2017-12-31T05:11:29.247Z,993.7
2017-12-31T05:12:29.235Z,993.7
2017-12-31T05:13:29.215Z,993.7
2017-12-31T05:14:29.195Z,993.59
2017-12-31T05:15:29.178Z,993.67
2017-12-31T05:16:29.160Z,993.67
2017-12-31T05:17:29.145Z,993.69
2017-12-31T05:18:29.125Z,993.66
2017-12-31T05:19:29.106Z,993.68
2017-12-31T05:20:29.089Z,993.64
2017-12-31T05:21:29.072Z,993.68
2017-12-31T05:22:29.053Z,993.66
2017-12-31T05:23:29.035Z,993.71
2017-12-31T05:24:29.018Z,993.65
2017-12-31T05:25:29.002Z,993.71
2017-12-31T05:26:28.983Z,993.62
2017-12-31T05:27:28.972Z,993.64
2017-12-31T05:28:28.948Z,993.64
2017-12-31T05:29:28.932Z,993.64
2017-12-31T05:30:28.913Z,993.74
2017-12-31T05:31:28.897Z,993.59
2017-12-31T05:32:28.880Z,993.58
2017-12-31T05:33:28.864Z,993.68
2017-12-31T05:34:28.847Z,993.73
2017-12-31T05:35:28.830Z,993.6
2017-12-31T05:36:28.810Z,993.6
2017-12-31T05:37:28.792Z,993.67
2017-12-31T05:38:28.782Z,993.65
2017-12-31T05:39:28.760Z,993.64
2017-12-31T05:40:28.744Z,993.61
2017-12-31T05:41:28.725Z,993.63
2017-12-31T05:42:28.708Z,993.68
2017-12-31T05:43:28.690Z,993.63
2017-12-31T05:44:28.673Z,993.63
2017-12-31T05:45:28.656Z,993.66
2017-12-31T05:46:28.650Z,993.62
2017-12-31T05:47:28.622Z,993.69
2017-12-31T05:48:28.603Z,993.71
2017-12-31T05:49:28.789Z,993.63
2017-12-31T05:50:28.573Z,993.68
2017-12-31T05:51:28.563Z,993.72
2017-12-31T05:52:28.534Z,993.67
2017-12-31T05:53:28.518Z,993.89
2017-12-31T05:54:28.503Z,993.73
2017-12-31T05:55:28.483Z,993.65
2017-12-31T05:56:28.467Z,993.7
2017-12-31T05:57:28.452Z,993.64
2017-12-31T05:58:28.433Z,993.69
2017-12-31T05:59:28.432Z,993.79
2017-12-31T06:00:28.398Z,993.79
2017-12-31T06:01:28.619Z,993.69
2017-12-31T06:02:28.369Z,993.73
2017-12-31T06:03:28.348Z,993.83
2017-12-31T06:04:28.332Z,993.74
2017-12-31T06:05:28.318Z,993.69
2017-12-31T06:06:28.297Z,993.64
2017-12-31T06:07:28.280Z,993.68
2017-12-31T06:08:28.266Z,993.61
2017-12-31T06:09:28.247Z,993.7
2017-12-31T06:10:28.229Z,993.69
2017-12-31T06:11:28.214Z,993.57
2017-12-31T06:12:28.201Z,993.73
2017-12-31T06:13:28.178Z,993.69
2017-12-31T06:14:28.162Z,993.68
2017-12-31T06:15:28.145Z,993.68
2017-12-31T06:16:28.126Z,993.68
2017-12-31T06:17:28.114Z,993.61
2017-12-31T06:18:28.094Z,993.61
2017-12-31T06:19:28.076Z,993.63
2017-12-31T06:20:28.061Z,993.66
2017-12-31T06:21:28.043Z,993.61
2017-12-31T06:22:28.026Z,993.71
2017-12-31T06:23:28.011Z,993.6
2017-12-31T06:24:27.991Z,993.64
2017-12-31T06:25:27.978Z,993.7
2017-12-31T06:26:27.958Z,993.67
2017-12-31T06:27:27.941Z,993.7
2017-12-31T06:28:27.922Z,993.67
2017-12-31T06:29:27.908Z,993.74
2017-12-31T06:30:27.891Z,993.63
2017-12-31T06:31:27.874Z,993.61
2017-12-31T06:32:27.856Z,993.57
2017-12-31T06:33:27.839Z,993.59
2017-12-31T06:34:27.826Z,993.57
2017-12-31T06:35:27.811Z,993.58
2017-12-31T06:36:27.789Z,993.63
2017-12-31T06:37:27.772Z,993.54
2017-12-31T06:38:27.760Z,993.59
2017-12-31T06:39:27.737Z,993.51
2017-12-31T06:40:27.720Z,993.46
2017-12-31T06:41:27.708Z,993.57
2017-12-31T06:42:27.688Z,993.51
2017-12-31T06:43:27.669Z,993.56
2017-12-31T06:44:27.653Z,993.61
2017-12-31T06:45:27.636Z,993.62
2017-12-31T06:46:27.619Z,993.57
2017-12-31T06:47:27.608Z,993.58
2017-12-31T06:48:27.590Z,993.51
2017-12-31T06:49:27.568Z,993.6
2017-12-31T06:50:27.551Z,993.46
2017-12-31T06:51:27.535Z,993.61
2017-12-31T06:52:27.518Z,993.6
2017-12-31T06:53:27.500Z,993.62
2017-12-31T06:54:27.485Z,993.6
2017-12-31T06:55:27.467Z,993.73
2017-12-31T06:56:27.449Z,993.56
2017-12-31T06:57:27.434Z,993.63
2017-12-31T06:58:27.418Z,993.6
2017-12-31T06:59:27.402Z,993.64
2017-12-31T07:00:27.390Z,993.65
2017-12-31T07:01:27.366Z,993.58
2017-12-31T07:02:27.347Z,993.57
2017-12-31T07:03:27.331Z,993.55
2017-12-31T07:04:27.317Z,993.55
2017-12-31T07:05:27.300Z,993.62
2017-12-31T07:06:27.282Z,993.66
2017-12-31T07:07:27.261Z,993.59
2017-12-31T07:08:27.245Z,993.54
2017-12-31T07:09:27.229Z,993.71
2017-12-31T07:10:27.212Z,993.59
2017-12-31T07:11:27.197Z,993.64
2017-12-31T07:12:27.177Z,993.58
2017-12-31T07:13:27.160Z,993.66
2017-12-31T07:14:27.147Z,993.59
2017-12-31T07:15:27.129Z,993.71
2017-12-31T07:16:27.111Z,993.75
2017-12-31T07:17:27.091Z,993.7
2017-12-31T07:18:27.074Z,993.57
2017-12-31T07:19:27.061Z,993.63
2017-12-31T07:20:27.043Z,993.57
2017-12-31T07:21:27.025Z,993.58
2017-12-31T07:22:27.009Z,993.54
2017-12-31T07:23:26.991Z,993.57
2017-12-31T07:24:26.973Z,993.75
2017-12-31T07:25:26.962Z,993.47
2017-12-31T07:26:26.943Z,993.54
2017-12-31T07:27:26.924Z,993.48
2017-12-31T07:28:26.906Z,993.62
2017-12-31T07:29:26.890Z,993.52
2017-12-31T07:30:26.871Z,993.67
2017-12-31T07:31:26.856Z,993.49
2017-12-31T07:32:26.839Z,993.56
2017-12-31T07:33:26.832Z,993.62
2017-12-31T07:34:26.803Z,993.5
2017-12-31T07:35:26.786Z,993.53
2017-12-31T07:36:26.772Z,993.52
2017-12-31T07:37:26.760Z,993.52
2017-12-31T07:38:26.736Z,993.46
2017-12-31T07:39:26.719Z,993.55
2017-12-31T07:40:26.703Z,993.58
2017-12-31T07:41:26.683Z,993.54
2017-12-31T07:42:26.667Z,993.46
2017-12-31T07:43:26.652Z,993.44
2017-12-31T07:44:26.633Z,993.47
2017-12-31T07:45:26.616Z,993.48
2017-12-31T07:46:26.599Z,993.57
2017-12-31T07:47:26.584Z,993.48
2017-12-31T07:48:26.566Z,993.51
2017-12-31T07:49:26.549Z,993.47
2017-12-31T07:50:26.533Z,993.45
2017-12-31T07:51:26.518Z,993.54
2017-12-31T07:52:26.498Z,993.48
2017-12-31T07:53:26.482Z,993.5
2017-12-31T07:54:26.465Z,993.44
2017-12-31T07:55:26.448Z,993.42
2017-12-31T07:56:26.432Z,993.38
2017-12-31T07:57:26.413Z,993.34
2017-12-31T07:58:26.399Z,993.55
2017-12-31T07:59:26.382Z,993.71
2017-12-31T08:00:26.366Z,993.52
2017-12-31T08:01:26.350Z,993.44
2017-12-31T08:02:26.332Z,993.48
2017-12-31T08:03:26.313Z,993.48
2017-12-31T08:04:26.299Z,993.46
2017-12-31T08:05:26.280Z,993.62
2017-12-31T08:06:26.266Z,993.62
2017-12-31T08:07:26.248Z,993.57
2017-12-31T08:08:26.232Z,993.49
2017-12-31T08:09:26.214Z,993.55
2017-12-31T08:10:26.196Z,993.79
2017-12-31T08:11:26.184Z,993.76
2017-12-31T08:12:26.164Z,993.79
2017-12-31T08:13:26.148Z,993.65
2017-12-31T08:14:26.131Z,993.78
2017-12-31T08:15:26.113Z,993.61
2017-12-31T08:16:26.099Z,993.96
2017-12-31T08:17:26.081Z,993.77
2017-12-31T08:18:26.063Z,993.67
2017-12-31T08:19:26.047Z,993.62
2017-12-31T08:20:26.233Z,993.74
2017-12-31T08:21:26.015Z,993.8
2017-12-31T08:22:26.000Z,993.74
2017-12-31T08:23:25.980Z,993.65
2017-12-31T08:24:25.965Z,993.65
2017-12-31T08:25:25.949Z,993.8
2017-12-31T08:26:25.930Z,993.76
2017-12-31T08:27:25.914Z,993.74
2017-12-31T08:28:25.898Z,993.88
2017-12-31T08:29:25.879Z,993.87
2017-12-31T08:30:25.862Z,993.76
2017-12-31T08:31:25.849Z,993.79
2017-12-31T08:32:25.831Z,993.78
2017-12-31T08:33:25.813Z,993.78
2017-12-31T08:34:25.797Z,993.83
2017-12-31T08:35:25.780Z,993.83
2017-12-31T08:36:25.764Z,993.88
2017-12-31T08:37:25.747Z,993.87
2017-12-31T08:38:25.731Z,993.74
2017-12-31T08:39:25.718Z,993.67
2017-12-31T08:40:25.701Z,993.76
2017-12-31T08:41:25.679Z,993.73
2017-12-31T08:42:25.665Z,993.68
2017-12-31T08:43:25.648Z,993.73
2017-12-31T08:44:25.633Z,993.66
2017-12-31T08:45:25.616Z,993.68
2017-12-31T08:46:25.598Z,993.71
2017-12-31T08:47:25.578Z,993.72
2017-12-31T08:48:25.568Z,993.75
2017-12-31T08:49:25.546Z,993.74
2017-12-31T08:50:25.531Z,993.72
2017-12-31T08:51:25.514Z,993.71
2017-12-31T08:52:25.495Z,993.69
2017-12-31T08:53:25.479Z,993.65
2017-12-31T08:54:25.466Z,993.62
2017-12-31T08:55:25.448Z,993.58
2017-12-31T08:56:25.430Z,993.71
2017-12-31T08:57:25.415Z,993.59
2017-12-31T08:58:25.399Z,993.57
2017-12-31T08:59:25.379Z,993.58
2017-12-31T09:00:25.364Z,993.62
2017-12-31T09:01:25.347Z,993.59
2017-12-31T09:02:25.333Z,993.69
2017-12-31T09:03:25.314Z,993.63
2017-12-31T09:04:25.297Z,993.62
2017-12-31T09:05:25.281Z,993.6
2017-12-31T09:06:25.265Z,993.38
2017-12-31T09:07:25.248Z,993.6
2017-12-31T09:08:25.235Z,993.49
2017-12-31T09:09:25.217Z,993.56
2017-12-31T09:10:25.201Z,993.49
2017-12-31T09:11:25.182Z,993.58
2017-12-31T09:12:25.169Z,993.61
2017-12-31T09:13:25.150Z,993.49
2017-12-31T09:14:25.136Z,993.58
2017-12-31T09:15:25.122Z,993.53
2017-12-31T09:16:25.102Z,993.43
2017-12-31T09:17:25.089Z,993.7
2017-12-31T09:18:25.075Z,993.51
2017-12-31T09:19:25.055Z,993.52
2017-12-31T09:20:25.039Z,993.46
2017-12-31T09:21:25.022Z,993.49
2017-12-31T09:22:25.006Z,993.44
2017-12-31T09:23:24.990Z,993.54
2017-12-31T09:24:24.973Z,993.52
2017-12-31T09:25:24.960Z,993.53
2017-12-31T09:26:24.943Z,993.5
2017-12-31T09:27:24.926Z,993.57
2017-12-31T09:28:24.922Z,993.58
2017-12-31T09:29:24.899Z,993.49
2017-12-31T09:30:24.880Z,993.46
2017-12-31T09:31:24.861Z,993.56
2017-12-31T09:32:24.846Z,993.39
2017-12-31T09:33:24.835Z,993.41
2017-12-31T09:34:24.817Z,993.47
2017-12-31T09:35:24.798Z,993.47
2017-12-31T09:36:24.781Z,993.54
2017-12-31T09:37:24.768Z,993.39
2017-12-31T09:38:24.757Z,993.55
2017-12-31T09:39:24.735Z,993.49
2017-12-31T09:40:24.721Z,993.44
2017-12-31T09:41:24.704Z,993.45
2017-12-31T09:42:24.688Z,993.36
2017-12-31T09:43:24.671Z,993.42
2017-12-31T09:44:24.655Z,993.43
2017-12-31T09:45:24.640Z,993.47
2017-12-31T09:46:24.623Z,993.57
2017-12-31T09:47:24.635Z,993.5
2017-12-31T09:48:24.596Z,993.56
2017-12-31T09:49:24.575Z,993.47
2017-12-31T09:50:24.621Z,993.52
2017-12-31T09:51:24.543Z,993.52
2017-12-31T09:52:24.528Z,993.37
2017-12-31T09:53:24.516Z,993.59
2017-12-31T09:54:24.496Z,993.42
2017-12-31T09:55:24.503Z,993.51
2017-12-31T09:56:24.469Z,993.33
2017-12-31T09:57:24.451Z,993.46
2017-12-31T09:58:24.436Z,993.39
2017-12-31T09:59:24.418Z,993.44
2017-12-31T10:00:24.406Z,993.32
2017-12-31T10:01:24.390Z,993.62
2017-12-31T10:02:24.370Z,993.42
2017-12-31T10:03:24.354Z,993.53
2017-12-31T10:04:24.338Z,993.43
2017-12-31T10:05:24.322Z,993.37
2017-12-31T10:06:24.309Z,993.38
2017-12-31T10:07:24.292Z,993.39
2017-12-31T10:08:24.275Z,993.48
2017-12-31T10:09:24.265Z,993.39
2017-12-31T10:10:24.247Z,993.35
2017-12-31T10:11:24.230Z,993.35
2017-12-31T10:12:24.214Z,993.31
2017-12-31T10:13:24.197Z,993.3
2017-12-31T10:14:24.186Z,993.33
2017-12-31T10:15:24.175Z,993.34
2017-12-31T10:16:24.151Z,993.39
2017-12-31T10:17:24.135Z,993.29
2017-12-31T10:18:24.121Z,993.36
2017-12-31T10:19:24.108Z,993.3
2017-12-31T10:20:24.296Z,993.29
2017-12-31T10:21:24.072Z,993.44
2017-12-31T10:22:24.060Z,993.28
2017-12-31T10:23:24.047Z,993.41
2017-12-31T10:24:24.027Z,993.28
2017-12-31T10:25:24.012Z,993.17
2017-12-31T10:26:23.996Z,993.25
2017-12-31T10:27:23.981Z,993.29
2017-12-31T10:28:23.964Z,993.34
2017-12-31T10:29:23.950Z,993.33
2017-12-31T10:30:23.938Z,993.36
2017-12-31T10:31:23.921Z,993.34
2017-12-31T10:32:23.917Z,993.28
2017-12-31T10:33:23.888Z,993.15
2017-12-31T10:34:23.881Z,993.23
2017-12-31T10:35:23.862Z,993.34
2017-12-31T10:36:23.842Z,993.29
2017-12-31T10:37:23.826Z,993.19
2017-12-31T10:38:23.812Z,993.15
2017-12-31T10:39:23.794Z,993.16
2017-12-31T10:40:23.781Z,993.28
2017-12-31T10:41:23.765Z,993.25
2017-12-31T10:42:23.751Z,993.26
2017-12-31T10:43:23.739Z,993.15
2017-12-31T10:44:23.718Z,993.23
2017-12-31T10:45:23.707Z,993.31
2017-12-31T10:46:23.690Z,993.13
2017-12-31T10:47:23.674Z,993.17
2017-12-31T10:48:23.657Z,993.14
2017-12-31T10:49:23.644Z,993.19
2017-12-31T10:50:23.627Z,993.24
2017-12-31T10:51:23.612Z,993.09
2017-12-31T10:52:23.596Z,993.15
2017-12-31T10:53:23.583Z,993.19
2017-12-31T10:54:23.619Z,993.04
2017-12-31T10:55:23.551Z,993
2017-12-31T10:56:23.541Z,993.05
2017-12-31T10:57:23.522Z,993.06
2017-12-31T10:58:23.506Z,993.06
2017-12-31T10:59:23.492Z,993.06
2017-12-31T11:00:23.476Z,993
2017-12-31T11:01:23.463Z,993.07
2017-12-31T11:02:23.445Z,993.01
2017-12-31T11:03:23.431Z,992.95
2017-12-31T11:04:23.418Z,993
2017-12-31T11:05:23.404Z,992.92
2017-12-31T11:06:23.385Z,992.88
2017-12-31T11:07:23.371Z,992.86
2017-12-31T11:08:23.359Z,992.87
2017-12-31T11:09:23.342Z,992.88
2017-12-31T11:10:23.325Z,992.85
2017-12-31T11:11:23.311Z,992.92
2017-12-31T11:12:23.295Z,992.89
2017-12-31T11:13:23.280Z,992.98
2017-12-31T11:14:23.269Z,992.94
2017-12-31T11:15:23.252Z,992.91
2017-12-31T11:16:23.237Z,992.9
2017-12-31T11:17:23.224Z,992.86
2017-12-31T11:18:23.207Z,992.9
2017-12-31T11:19:23.193Z,992.85
2017-12-31T11:20:23.178Z,992.84
2017-12-31T11:21:23.161Z,992.83
2017-12-31T11:22:23.150Z,992.74
2017-12-31T11:23:23.133Z,992.84
2017-12-31T11:24:23.128Z,992.74
2017-12-31T11:25:23.104Z,992.7
2017-12-31T11:26:23.087Z,992.77
2017-12-31T11:27:23.074Z,992.72
2017-12-31T11:28:23.058Z,992.9
2017-12-31T11:29:23.048Z,992.83
2017-12-31T11:30:23.031Z,992.6
2017-12-31T11:31:23.014Z,992.76
2017-12-31T11:32:22.999Z,992.58
2017-12-31T11:33:22.988Z,992.62
2017-12-31T11:34:22.970Z,992.59
2017-12-31T11:35:22.958Z,992.59
2017-12-31T11:36:22.939Z,992.58
2017-12-31T11:37:22.926Z,992.59
2017-12-31T11:38:22.913Z,992.6
2017-12-31T11:39:22.898Z,992.67
2017-12-31T11:40:22.879Z,992.51
2017-12-31T11:41:22.868Z,992.52
2017-12-31T11:42:22.851Z,992.49
2017-12-31T11:43:22.835Z,992.53
2017-12-31T11:44:22.821Z,992.57
2017-12-31T11:45:22.815Z,992.52
2017-12-31T11:46:22.794Z,992.44
2017-12-31T11:47:22.778Z,992.42
2017-12-31T11:48:22.764Z,992.31
2017-12-31T11:49:22.748Z,992.34
2017-12-31T11:50:22.734Z,992.23
2017-12-31T11:51:22.719Z,992.13
2017-12-31T11:52:22.706Z,992.15
2017-12-31T11:53:22.690Z,992.47
2017-12-31T11:54:22.675Z,992.33
2017-12-31T11:55:22.741Z,992.19
2017-12-31T11:56:22.647Z,992.24
2017-12-31T11:57:22.632Z,992.09
2017-12-31T11:58:22.617Z,992.14
2017-12-31T11:59:22.708Z,992.1
2017-12-31T12:00:22.590Z,992.08
2017-12-31T12:01:22.573Z,992.15
2017-12-31T12:02:22.560Z,992.01
2017-12-31T12:03:22.547Z,992.16
2017-12-31T12:04:22.733Z,992
2017-12-31T12:05:22.518Z,992.02
2017-12-31T12:06:22.506Z,991.94
2017-12-31T12:07:22.490Z,991.99
2017-12-31T12:08:22.476Z,991.93
2017-12-31T12:09:22.460Z,991.98
2017-12-31T12:10:22.448Z,991.96
2017-12-31T12:11:22.432Z,991.82
2017-12-31T12:12:22.417Z,991.88
2017-12-31T12:13:22.403Z,991.88
2017-12-31T12:14:22.389Z,991.79
2017-12-31T12:15:22.373Z,991.84
2017-12-31T12:16:22.360Z,991.88
2017-12-31T12:17:22.346Z,991.82
2017-12-31T12:18:22.333Z,991.91
2017-12-31T12:19:22.321Z,991.85
2017-12-31T12:20:22.320Z,992.1
2017-12-31T12:21:22.293Z,991.94
2017-12-31T12:22:22.277Z,991.7
2017-12-31T12:23:22.263Z,991.9
2017-12-31T12:24:22.253Z,991.89
2017-12-31T12:25:22.237Z,991.79
2017-12-31T12:26:22.223Z,991.84
2017-12-31T12:27:22.212Z,991.8
2017-12-31T12:28:22.198Z,991.78
2017-12-31T12:29:22.187Z,991.72
2017-12-31T12:30:22.174Z,991.74
2017-12-31T12:31:22.158Z,991.88